Terminal Aerodrome Forecast
Issued by NWS

Home | Current Version | Previous Version | Text Only | Print | Product List | Glossary On
Versions: 1 2 3 4 5 6 7 8 9 10 11 12 13 14 15 16 17 18 19 20
623
FTUS43 KGRR 191959 AAA
TAFAZO
TAF AMD
KAZO 191959Z 1920/2018 VRB03KT 6SM HZ BKN008
     FM192030 06007KT P6SM OVC012
     FM192100 06006KT P6SM BKN025
     FM192200 06005KT P6SM BKN035
     FM200300 VRB03KT P6SM BKN020
     FM200500 VRB03KT 3SM BR OVC008
     FM200800 VRB03KT 1SM BR OVC004
     FM201400 VRB03KT 4SM BR OVC012
     FM201600 17005KT P6SM BKN035=

USA.gov is the U.S. government's official web portal to all federal, state and local government web resources and services.